Epic Bermuda — 9HGF9 — position and weather

sailwx.info

Track history (hours):
 
Tides and Currents Weather Stations Pressure Air Temp Water Temp Dewpoint Dewpoint Depression Visibility Wind Speed Wind Dir Waves Ship Positions

Epic Bermuda

Last reported at 2017-Nov-30 02:18 UTC. Time now 2017-Dec-11 00:29 UTC.
Position N 38°49' W 010°12'.
Warning: this ship's position is 10 days out of date.

Length 119 m; draft 5.2 m.

MMSI: 256942000.

Date/timePositionNaut miles runAvg speedWind from/ knotsBaromVisibWave heightAir tempDewpointWater temp
2017-Nov-30 02:18N 38°49' W 010°12'413.0
2017-Nov-30 02:00N 38°53' W 010°12'613.1
2017-Nov-30 01:30N 38°59' W 010°12'612.9
2017-Nov-30 01:00N 39°06' W 010°12'  
2017-Nov-25 07:02N 39°12' W 009°57'012.7
2017-Nov-25 07:00N 39°12' W 009°57'612.9
2017-Nov-25 06:30N 39°05' W 009°57'713.2
2017-Nov-25 06:00N 38°59' W 009°57'612.9
2017-Nov-25 05:30N 38°52' W 009°57'713.1
2017-Nov-25 05:00N 38°46' W 009°57'612.5
2017-Nov-25 04:30N 38°39' W 009°56'510.9
2017-Nov-25 04:00N 38°35' W 009°51'612.8
2017-Nov-25 03:30N 38°36' W 009°43'612.8
2017-Nov-25 03:00N 38°36' W 009°34'612.8
2017-Nov-25 02:30N 38°36' W 009°26'611.9
2017-Nov-25 01:59N 38°39' W 009°20'511.0
2017-Nov-25 01:30N 38°41' W 009°13'2 2.7
2017-Nov-25 00:53N 38°41' W 009°11'0 0.0
2017-Nov-25 00:29N 38°41' W 009°11'0 0.0
2017-Nov-24 23:38N 38°41' W 009°11'0 0.0
2017-Nov-24 23:14N 38°41' W 009°11'0 0.0
2017-Nov-24 22:53N 38°41' W 009°11'0 0.0
2017-Nov-24 21:59N 38°41' W 009°11'0 0.0
2017-Nov-24 20:50N 38°41' W 009°11'0 0.1
2017-Nov-24 20:29N 38°41' W 009°11'0 0.0
2017-Nov-24 20:00N 38°41' W 009°11'0 0.2
2017-Nov-24 19:30N 38°41' W 009°11'0 0.1
2017-Nov-24 19:00N 38°41' W 009°11'0 0.2
2017-Nov-24 18:30N 38°41' W 009°11'2 4.6
2017-Nov-24 18:00N 38°41' W 009°14'5 9.4
2017-Nov-24 17:30N 38°39' W 009°20'611.5
2017-Nov-24 17:00N 38°35' W 009°24'612.5
2017-Nov-24 16:30N 38°28' W 009°25'612.4
2017-Nov-24 16:00N 38°22' W 009°25'612.4
2017-Nov-24 15:30N 38°16' W 009°25'612.6
2017-Nov-24 15:00N 38°10' W 009°25'612.0
2017-Nov-24 14:30N 38°04' W 009°25'612.2
2017-Nov-24 14:00N 37°57' W 009°25'612.1
2017-Nov-24 13:30N 37°51' W 009°25'612.1
2017-Nov-24 13:00N 37°45' W 009°26'8011.0
2017-Nov-24 05:45N 36°30' W 008°52'2012.1
2017-Nov-24 04:06N 36°12' W 008°42'112.6
2017-Nov-24 04:00N 36°11' W 008°42'612.3
2017-Nov-24 03:30N 36°05' W 008°39'612.4
2017-Nov-24 03:00N 35°59' W 008°36'612.5
2017-Nov-24 02:30N 35°54' W 008°33'612.4
2017-Nov-24 02:00N 35°48' W 008°30'612.1
2017-Nov-24 01:29N 35°42' W 008°26'612.1
2017-Nov-24 01:00N 35°37' W 008°24'612.2
2017-Nov-24 00:30N 35°31' W 008°21'612.3
2017-Nov-24 00:00N 35°25' W 008°18'  
Track history (hours):
 
Tides and Currents Weather Stations Pressure Air Temp Water Temp Dewpoint Dewpoint Depression Visibility Wind Speed Wind Dir Waves Ship Positions

Epic Bermuda

Last reported at 2017-Nov-30 02:18 UTC. Time now 2017-Dec-11 00:29 UTC.
Position N 38°49' W 010°12'.
Warning: this ship's position is 10 days out of date.

Length 119 m; draft 5.2 m.

MMSI: 256942000.

Date/timePositionNaut miles runAvg speedWind from/ knotsBaromVisibWave heightAir tempDewpointWater temp
2017-Nov-30 02:18N 38°49' W 010°12'413.0
2017-Nov-30 02:00N 38°53' W 010°12'613.1
2017-Nov-30 01:30N 38°59' W 010°12'612.9
2017-Nov-30 01:00N 39°06' W 010°12'  
2017-Nov-25 07:02N 39°12' W 009°57'012.7
2017-Nov-25 07:00N 39°12' W 009°57'612.9
2017-Nov-25 06:30N 39°05' W 009°57'713.2
2017-Nov-25 06:00N 38°59' W 009°57'612.9
2017-Nov-25 05:30N 38°52' W 009°57'713.1
2017-Nov-25 05:00N 38°46' W 009°57'612.5
2017-Nov-25 04:30N 38°39' W 009°56'510.9
2017-Nov-25 04:00N 38°35' W 009°51'612.8
2017-Nov-25 03:30N 38°36' W 009°43'612.8
2017-Nov-25 03:00N 38°36' W 009°34'612.8
2017-Nov-25 02:30N 38°36' W 009°26'611.9
2017-Nov-25 01:59N 38°39' W 009°20'511.0
2017-Nov-25 01:30N 38°41' W 009°13'2 2.7
2017-Nov-25 00:53N 38°41' W 009°11'0 0.0
2017-Nov-25 00:29N 38°41' W 009°11'0 0.0
2017-Nov-24 23:38N 38°41' W 009°11'0 0.0
2017-Nov-24 23:14N 38°41' W 009°11'0 0.0
2017-Nov-24 22:53N 38°41' W 009°11'0 0.0
2017-Nov-24 21:59N 38°41' W 009°11'0 0.0
2017-Nov-24 20:50N 38°41' W 009°11'0 0.1
2017-Nov-24 20:29N 38°41' W 009°11'0 0.0
2017-Nov-24 20:00N 38°41' W 009°11'0 0.2
2017-Nov-24 19:30N 38°41' W 009°11'0 0.1
2017-Nov-24 19:00N 38°41' W 009°11'0 0.2
2017-Nov-24 18:30N 38°41' W 009°11'2 4.6
2017-Nov-24 18:00N 38°41' W 009°14'5 9.4
2017-Nov-24 17:30N 38°39' W 009°20'611.5
2017-Nov-24 17:00N 38°35' W 009°24'612.5
2017-Nov-24 16:30N 38°28' W 009°25'612.4
2017-Nov-24 16:00N 38°22' W 009°25'612.4
2017-Nov-24 15:30N 38°16' W 009°25'612.6
2017-Nov-24 15:00N 38°10' W 009°25'612.0
2017-Nov-24 14:30N 38°04' W 009°25'612.2
2017-Nov-24 14:00N 37°57' W 009°25'612.1
2017-Nov-24 13:30N 37°51' W 009°25'612.1
2017-Nov-24 13:00N 37°45' W 009°26'8011.0
2017-Nov-24 05:45N 36°30' W 008°52'2012.1
2017-Nov-24 04:06N 36°12' W 008°42'112.6
2017-Nov-24 04:00N 36°11' W 008°42'612.3
2017-Nov-24 03:30N 36°05' W 008°39'612.4
2017-Nov-24 03:00N 35°59' W 008°36'612.5
2017-Nov-24 02:30N 35°54' W 008°33'612.4
2017-Nov-24 02:00N 35°48' W 008°30'612.1
2017-Nov-24 01:29N 35°42' W 008°26'612.1
2017-Nov-24 01:00N 35°37' W 008°24'612.2
2017-Nov-24 00:30N 35°31' W 008°21'612.3
2017-Nov-24 00:00N 35°25' W 008°18'  

Dump ship's entire track history